Terminal Aerodrome Forecast
Issued by NWS

Home | Current Version | Previous Version | Graphics & Text | Print | Product List | Glossary On
Versions: 1 2 3 4 5 6 7 8 9 10 11 12 13 14 15 16 17 18 19 20 21 22 23 24 25 26
000
FTUS43 KABR 280004 CCA
TAFATY
TAF COR
KATY 280004Z 2800/2824 09017G24KT P6SM VCSH OVC015
      TEMPO 2800/2804 5SM SHRA OVC025
     FM280400 06015KT P6SM -SHRA OVC015=

USA.gov is the U.S. government's official web portal to all federal, state and local government web resources and services.